This is the latest recevied weather packets stored in our database for station/object YB3RDW-13. If no packets are shown the sender has not sent any weather packets the latest 10 day(s).
| Time | Temp. | Humidity | Pressure | Rain* | Wind** | Luminosity | Snow |
|---|---|---|---|---|---|---|---|
| 1777865817 | 31.67° C | 74% | 1013 hPa | 0 mm | - | 533 W/m² | - |
| 1777865518 | 32.22° C | 73% | 1013 hPa | 0 mm | - | 653 W/m² | - |
| 1777865217 | 32.22° C | 72% | 1013 hPa | 0 mm | - | 249 W/m² | - |
| 1777864917 | 31.67° C | 73% | 1013 hPa | 0 mm | - | 360 W/m² | - |
| 1777864617 | 31.67° C | 74% | 1013 hPa | 0 mm | - | 198 W/m² | - |
| 1777864317 | 31.67° C | 74% | 1014 hPa | 0 mm | - | 538 W/m² | - |
| 1777864018 | 31.67° C | 74% | 1014 hPa | 0 mm | - | 309 W/m² | - |
| 1777863718 | 32.22° C | 72% | 1014 hPa | 0 mm | - | 594 W/m² | - |
| 1777863418 | 31.67° C | 75% | 1014 hPa | 0 mm | - | 594 W/m² | - |
| 1777863118 | 31.11° C | 77% | 1014 hPa | 0 mm | - | 606 W/m² | - |
| 1777862820 | 31.67° C | 76% | 1014 hPa | 0 mm | - | 214 W/m² | - |
| 1777862517 | 31.11° C | 78% | 1014 hPa | 0 mm | - | 561 W/m² | - |
| 1777862217 | 30.56° C | 78% | 1014 hPa | 0 mm | - | 403 W/m² | - |
| 1777861917 | 31.11° C | 76% | 1014 hPa | 0 mm | - | 208 W/m² | - |
| 1777861617 | 31.11° C | 77% | 1014 hPa | 0 mm | - | 524 W/m² | - |
| 1777861317 | 31.11° C | 77% | 1014 hPa | 0 mm | - | 516 W/m² | - |
| 1777861018 | 31.11° C | 77% | 1014 hPa | 0 mm | - | 162 W/m² | - |
| 1777860717 | 31.11° C | 77% | 1014 hPa | 0 mm | - | 491 W/m² | - |
| 1777860417 | 30.56° C | 79% | 1014 hPa | 0 mm | - | 495 W/m² | - |
| 1777860117 | 31.11° C | 77% | 1014 hPa | 0 mm | - | 429 W/m² | - |
| 1777859817 | 31.11° C | 78% | 1014 hPa | 0 mm | - | 198 W/m² | - |
| 1777859517 | 30° C | 81% | 1014 hPa | 0 mm | - | 467 W/m² | - |
| 1777859217 | 30° C | 81% | 1014 hPa | 0 mm | - | 386 W/m² | - |
| 1777858918 | 30° C | 82% | 1014 hPa | 0 mm | - | 436 W/m² | - |
| 1777858617 | 29.44° C | 83% | 1014 hPa | 0 mm | - | 393 W/m² | - |
* Rain latest hour (hover to see other rain measurements)
** Current wind speed in m/s (hover to see current wind gust speed)